Terminal Aerodrome Forecast
Issued by NWS Cleveland, OH

Home | Current Version | Previous Version | Text Only | Print | Product List | Glossary On
Versions: 1 2 3 4 5 6 7 8 9 10 11 12 13 14 15 16 17 18 19 20 21 22 23 24 25 26 27 28 29 30 31 32 33 34 35 36 37
000
FTUS41 KCLE 222300 RRA
TAFYNG
TAF
KYNG 222341Z 2300/2324 VRB03KT P6SM SCT040
     FM230700 VRB03KT 5SM BR BKN035
     FM230900 08002KT 1/2SM FG BKN002
     FM231430 03004KT P6SM BKN025
     FM231800 03006KT P6SM BKN035=

USA.gov is the U.S. government's official web portal to all federal, state and local government web resources and services.